Weather at Bridgeport Municipal Airport

Public forecast

Using degrees Fahrenheit for public forecast. Weather courtesy of forecast.io.

Current aviation weather report (METAR) for Bridgeport Municipal Airport

Retrieved 2020/10/01 11:35 UTC (10 minutes ago):

KXBP 011135Z AUTO 08003KT 10SM CLR 16/07 A3018 RMK AO2 T01610070

Closest aviation forecast (TAF) to Bridgeport Municipal Airport

Closest forecast is Fort Worth Alliance Airport, 28.0 nm (51.9 km) ESE. Retrieved 2020/10/01 06:22 UTC (5 hours ago):

TAF KAFW 010520Z 0106/0206 22007KT P6SM SKC FM010700 33006KT P6SM SKC FM011100 02007KT P6SM SKC FM011700 05012KT P6SM FEW250